createdAt,value
2024-04-17T00:01:59.832Z,38.51
2024-04-17T00:05:04.242Z,38.27
2024-04-17T00:08:09.412Z,38.73
2024-04-17T00:11:11.311Z,38.71
2024-04-17T00:14:18.676Z,38.63
2024-04-17T00:17:20.909Z,38.40
2024-04-17T00:20:25.523Z,38.47
2024-04-17T00:23:30.774Z,38.29
2024-04-17T00:26:32.625Z,38.64
2024-04-17T00:29:39.796Z,38.30
2024-04-17T00:32:41.931Z,38.44
2024-04-17T00:35:46.766Z,38.63
2024-04-17T00:38:48.622Z,38.17
2024-04-17T00:41:53.314Z,38.49
2024-04-17T00:45:00.734Z,38.56
2024-04-17T00:48:03.219Z,38.64
2024-04-17T00:51:08.362Z,38.39
2024-04-17T00:54:10.446Z,38.65
2024-04-17T00:57:15.268Z,38.39
2024-04-17T01:00:20.319Z,38.77
2024-04-17T01:03:24.730Z,38.57
2024-04-17T01:06:27.233Z,38.37
2024-04-17T01:09:31.695Z,38.46
2024-04-17T01:12:33.445Z,38.12
2024-04-17T01:15:40.735Z,38.55
2024-04-17T01:18:42.910Z,38.38
2024-04-17T01:21:47.576Z,38.47
2024-04-17T01:24:52.133Z,38.50
2024-04-17T01:27:56.709Z,38.75
2024-04-17T01:30:59.194Z,38.73
2024-04-17T01:34:03.700Z,38.47
2024-04-17T01:37:05.929Z,38.26
2024-04-17T01:40:13.917Z,38.44
2024-04-17T01:43:15.929Z,38.64
2024-04-17T01:46:20.484Z,38.69
2024-04-17T01:49:22.755Z,38.41
2024-04-17T01:52:27.410Z,38.82
2024-04-17T01:55:34.546Z,38.54
2024-04-17T01:58:39.001Z,38.50
2024-04-17T02:01:44.175Z,38.48
2024-04-17T02:04:48.684Z,38.78
2024-04-17T02:07:50.705Z,38.50
2024-04-17T02:10:57.725Z,38.98
2024-04-17T02:13:59.703Z,38.68
2024-04-17T02:17:04.084Z,38.77
2024-04-17T02:20:06.659Z,38.58
2024-04-17T02:23:11.112Z,38.75
2024-04-17T02:26:18.220Z,38.63
2024-04-17T02:29:19.979Z,38.19
2024-04-17T02:32:24.328Z,38.64
2024-04-17T02:35:26.162Z,38.70
2024-04-17T02:38:30.626Z,38.45
2024-04-17T02:41:35.338Z,38.38
2024-04-17T02:44:39.873Z,38.88
2024-04-17T02:47:41.819Z,38.51
2024-04-17T02:50:46.444Z,38.68
2024-04-17T02:53:48.142Z,38.47
2024-04-17T02:56:55.040Z,38.56
2024-04-17T02:59:56.865Z,38.37
2024-04-17T03:03:05.573Z,38.36
2024-04-17T03:06:10.424Z,38.31
2024-04-17T03:09:13.351Z,38.95
2024-04-17T03:12:20.344Z,38.35
2024-04-17T03:15:22.270Z,38.47
2024-04-17T03:18:26.607Z,38.77
2024-04-17T03:21:30.038Z,38.87
2024-04-17T03:24:34.576Z,38.43
2024-04-17T03:27:39.045Z,38.95
2024-04-17T03:30:43.514Z,38.75
2024-04-17T03:33:47.188Z,38.43
2024-04-17T03:36:51.747Z,38.73
2024-04-17T03:39:56.085Z,38.71
2024-04-17T03:43:03.061Z,39.05
2024-04-17T03:46:08.482Z,38.49
2024-04-17T03:49:12.978Z,38.51
2024-04-17T03:52:15.047Z,38.59
2024-04-17T03:55:19.788Z,38.70
2024-04-17T03:58:24.177Z,38.41
2024-04-17T04:01:28.759Z,38.51
2024-04-17T04:04:30.526Z,38.95
2024-04-17T04:07:35.364Z,39.01
2024-04-17T04:10:37.332Z,36.07
2024-04-17T04:13:44.300Z,34.44
2024-04-17T04:16:48.847Z,34.25
2024-04-17T04:19:53.876Z,35.31
2024-04-17T04:22:56.073Z,36.01
2024-04-17T04:26:00.690Z,36.82
2024-04-17T04:29:08.052Z,36.84
2024-04-17T04:32:10.118Z,36.82
2024-04-17T04:35:14.541Z,36.80
2024-04-17T04:38:16.399Z,37.21
2024-04-17T04:41:20.809Z,36.98
2024-04-17T04:44:25.434Z,37.49
2024-04-17T04:47:30.459Z,36.95
2024-04-17T04:50:32.493Z,37.37
2024-04-17T04:53:37.004Z,37.70
2024-04-17T04:56:41.704Z,37.34
2024-04-17T04:59:46.299Z,37.50
2024-04-17T05:02:50.727Z,38.01
2024-04-17T05:05:52.487Z,38.00
2024-04-17T05:08:56.957Z,37.80
2024-04-17T05:12:01.613Z,37.81
2024-04-17T05:15:07.221Z,37.86
2024-04-17T05:18:12.134Z,37.93
2024-04-17T05:21:14.452Z,38.14
2024-04-17T05:24:19.243Z,37.56
2024-04-17T05:27:21.044Z,37.58
2024-04-17T05:30:27.984Z,38.17
2024-04-17T05:33:30.235Z,37.87
2024-04-17T05:36:34.680Z,37.31
2024-04-17T05:39:36.614Z,37.08
2024-04-17T05:42:40.995Z,36.84
2024-04-17T05:45:45.931Z,37.55
2024-04-17T05:48:50.265Z,37.40
2024-04-17T05:51:52.038Z,37.17
2024-04-17T05:54:56.518Z,37.22
2024-04-17T05:58:01.943Z,37.37
2024-04-17T06:01:06.635Z,37.68
2024-04-17T06:04:11.082Z,37.66
2024-04-17T06:07:15.686Z,37.83
2024-04-17T06:10:17.532Z,37.62
2024-04-17T06:13:22.258Z,37.82
2024-04-17T06:16:26.682Z,37.79
2024-04-17T06:19:31.306Z,38.00
2024-04-17T06:22:33.226Z,37.40
2024-04-17T06:25:37.658Z,37.67
2024-04-17T06:28:42.501Z,37.78
2024-04-17T06:31:47.064Z,37.78
2024-04-17T06:34:51.723Z,37.62
2024-04-17T06:37:54.061Z,37.91
2024-04-17T06:40:59.586Z,38.09
2024-04-17T06:44:04.037Z,37.88
2024-04-17T06:47:08.714Z,38.04
2024-04-17T06:50:13.303Z,37.72
2024-04-17T06:53:15.039Z,38.08
2024-04-17T06:56:19.698Z,38.00
2024-04-17T06:59:22.040Z,37.59
2024-04-17T07:02:29.413Z,37.56
2024-04-17T07:05:34.087Z,37.76
2024-04-17T07:08:35.850Z,37.67
2024-04-17T07:11:40.323Z,37.81
2024-04-17T07:14:42.238Z,37.68
2024-04-17T07:17:49.299Z,37.74
2024-04-17T07:20:51.232Z,38.20
2024-04-17T07:23:57.495Z,37.67
2024-04-17T07:27:02.038Z,37.85
2024-04-17T07:30:06.953Z,37.94
2024-04-17T07:33:11.516Z,37.93
2024-04-17T07:36:15.881Z,37.90
2024-04-17T07:39:21.251Z,38.18
2024-04-17T07:42:23.145Z,38.06
2024-04-17T07:45:27.832Z,38.11
2024-04-17T07:48:33.676Z,38.12
2024-04-17T07:51:38.513Z,38.45
2024-04-17T07:54:40.533Z,38.58
2024-04-17T07:57:44.878Z,38.42
2024-04-17T08:00:46.848Z,38.55
2024-04-17T08:03:54.592Z,38.40
2024-04-17T08:06:56.510Z,38.48
2024-04-17T08:10:00.968Z,38.21
2024-04-17T08:13:13.294Z,38.76
2024-04-17T08:16:16.331Z,38.29
2024-04-17T08:19:23.400Z,38.28
2024-04-17T08:22:27.807Z,38.28
2024-04-17T08:25:29.708Z,38.44
2024-04-17T08:28:34.026Z,38.16
2024-04-17T08:31:36.349Z,38.48
2024-04-17T08:34:43.637Z,38.40
2024-04-17T08:37:46.885Z,38.39
2024-04-17T08:40:51.774Z,38.15
2024-04-17T08:43:53.973Z,37.94
2024-04-17T08:46:58.594Z,38.05
2024-04-17T08:50:03.874Z,37.74
2024-04-17T08:53:09.778Z,37.88
2024-04-17T08:56:12.296Z,38.07
2024-04-17T08:59:16.888Z,38.19
2024-04-17T09:02:19.050Z,37.60
2024-04-17T09:05:26.539Z,37.63
2024-04-17T09:08:31.226Z,37.66
2024-04-17T09:11:36.480Z,37.98
2024-04-17T09:14:47.296Z,37.94
2024-04-17T09:17:56.552Z,38.00
2024-04-17T09:21:01.457Z,37.64
2024-04-17T09:24:06.192Z,37.86
2024-04-17T09:27:14.424Z,38.17
2024-04-17T09:30:18.877Z,38.38
2024-04-17T09:33:21.183Z,37.86
2024-04-17T09:36:28.689Z,38.20
2024-04-17T09:39:30.647Z,37.92
2024-04-17T09:42:36.084Z,37.84
2024-04-17T09:45:38.549Z,38.17
2024-04-17T09:48:45.893Z,38.22
2024-04-17T09:51:56.222Z,38.34
2024-04-17T09:55:00.982Z,38.07
2024-04-17T09:58:03.252Z,37.95
2024-04-17T10:01:09.180Z,38.15
2024-04-17T10:04:15.485Z,37.82
2024-04-17T10:07:21.528Z,37.99
2024-04-17T10:10:28.405Z,38.01
2024-04-17T10:13:30.417Z,37.99
2024-04-17T10:16:35.703Z,37.82
2024-04-17T10:19:41.254Z,37.97
2024-04-17T10:22:45.867Z,37.81
2024-04-17T10:25:52.371Z,37.95
2024-04-17T10:28:56.983Z,38.26
2024-04-17T10:32:00.457Z,37.71
2024-04-17T10:35:05.952Z,37.71
2024-04-17T10:38:24.478Z,38.19
2024-04-17T10:41:42.555Z,38.09
2024-04-17T10:44:49.999Z,37.68
2024-04-17T10:47:58.150Z,37.58
2024-04-17T10:51:04.703Z,37.52
2024-04-17T10:54:09.471Z,37.45
2024-04-17T10:57:13.929Z,37.76
2024-04-17T11:00:16.021Z,37.86
2024-04-17T11:03:20.799Z,37.87
2024-04-17T11:06:25.867Z,37.76
2024-04-17T11:09:33.342Z,38.16
2024-04-17T11:12:37.717Z,37.75
2024-04-17T11:15:42.169Z,37.58
2024-04-17T11:18:47.706Z,37.71
2024-04-17T11:21:51.032Z,37.75
2024-04-17T11:25:00.430Z,37.51
2024-04-17T11:28:05.193Z,37.69
2024-04-17T11:31:10.715Z,37.73
2024-04-17T11:34:20.643Z,37.46
2024-04-17T11:37:25.500Z,37.92
2024-04-17T11:40:30.451Z,38.02
2024-04-17T11:43:34.886Z,37.74
2024-04-17T11:46:38.860Z,37.51
2024-04-17T11:49:44.262Z,37.69
2024-04-17T11:52:46.223Z,37.89
2024-04-17T11:55:54.433Z,37.59
2024-04-17T11:58:58.865Z,37.68
2024-04-17T12:02:03.552Z,37.31
2024-04-17T12:05:06.379Z,37.58
2024-04-17T12:08:11.472Z,37.46
2024-04-17T12:11:18.749Z,37.22
2024-04-17T12:14:21.079Z,37.81
2024-04-17T12:17:26.509Z,37.40
2024-04-17T12:20:28.466Z,37.62
2024-04-17T12:23:34.366Z,37.64
2024-04-17T12:26:53.940Z,37.59
2024-04-17T12:29:59.959Z,37.48
2024-04-17T12:33:04.922Z,37.71
2024-04-17T12:36:11.263Z,37.44
2024-04-17T12:39:16.082Z,37.75
2024-04-17T12:42:23.714Z,37.78
2024-04-17T12:45:28.025Z,37.70
2024-04-17T12:48:32.483Z,37.71
2024-04-17T12:51:37.289Z,37.29
2024-04-17T12:54:41.687Z,37.39
2024-04-17T12:57:48.750Z,37.62
2024-04-17T13:00:53.778Z,37.54
2024-04-17T13:03:59.031Z,37.53
2024-04-17T13:07:04.763Z,37.68
2024-04-17T13:10:09.895Z,37.88
2024-04-17T13:13:17.281Z,37.50
2024-04-17T13:16:19.112Z,37.31
2024-04-17T13:19:23.935Z,37.89
2024-04-17T13:22:29.088Z,37.65
2024-04-17T13:25:31.131Z,37.75
2024-04-17T13:28:39.010Z,37.73
2024-04-17T13:31:43.484Z,37.62
2024-04-17T13:34:45.497Z,37.46
2024-04-17T13:37:50.187Z,37.53
2024-04-17T13:40:57.249Z,37.33
2024-04-17T13:44:04.521Z,37.58
2024-04-17T13:47:07.370Z,37.66
2024-04-17T13:50:12.092Z,37.37
2024-04-17T13:53:14.130Z,37.50
2024-04-17T13:56:18.754Z,37.37
2024-04-17T13:59:23.278Z,37.57
2024-04-17T14:02:29.269Z,37.17
2024-04-17T14:05:35.804Z,37.51
2024-04-17T14:08:40.576Z,37.32
2024-04-17T14:11:42.396Z,37.13
2024-04-17T14:14:49.541Z,37.19
2024-04-17T14:17:54.074Z,37.29
2024-04-17T14:20:58.956Z,37.41
2024-04-17T14:24:01.086Z,37.29
2024-04-17T14:27:05.927Z,37.02
2024-04-17T14:30:11.658Z,36.95
2024-04-17T14:33:16.586Z,37.22
2024-04-17T14:36:27.529Z,36.92
2024-04-17T14:39:29.653Z,37.09
2024-04-17T14:42:36.709Z,37.19
2024-04-17T14:45:44.099Z,36.83
2024-04-17T14:48:49.050Z,36.54
2024-04-17T14:51:51.269Z,36.78
2024-04-17T14:54:56.205Z,37.09
2024-04-17T14:57:58.340Z,36.99
2024-04-17T15:01:08.024Z,36.98
2024-04-17T15:04:10.987Z,37.07
2024-04-17T15:07:15.551Z,36.93
2024-04-17T15:10:17.438Z,37.28
2024-04-17T15:13:21.965Z,37.34
2024-04-17T15:16:27.168Z,37.25
2024-04-17T15:19:33.251Z,36.73
2024-04-17T15:22:35.817Z,37.00
2024-04-17T15:25:40.901Z,36.67
2024-04-17T15:28:42.990Z,36.76
2024-04-17T15:31:50.222Z,37.15
2024-04-17T15:34:52.459Z,36.50
2024-04-17T15:37:57.043Z,36.89
2024-04-17T15:41:02.341Z,36.50
2024-04-17T15:44:04.444Z,36.58
2024-04-17T15:47:13.045Z,36.49
2024-04-17T15:50:17.898Z,37.11
2024-04-17T15:53:20.063Z,36.58
2024-04-17T15:56:26.259Z,36.89
2024-04-17T15:59:30.721Z,36.69
2024-04-17T16:02:38.376Z,36.37
2024-04-17T16:05:40.926Z,36.16
2024-04-17T16:08:46.311Z,36.03
2024-04-17T16:11:50.791Z,36.44
2024-04-17T16:14:52.694Z,36.69
2024-04-17T16:18:00.649Z,36.53
2024-04-17T16:21:13.227Z,36.85
2024-04-17T16:24:18.301Z,37.22
2024-04-17T16:27:23.163Z,36.87
2024-04-17T16:30:27.363Z,36.74
2024-04-17T16:33:34.838Z,37.00
2024-04-17T16:36:36.599Z,36.86
2024-04-17T16:39:44.992Z,37.28
2024-04-17T16:42:47.077Z,37.33
2024-04-17T16:45:51.906Z,37.20
2024-04-17T16:48:58.133Z,37.51
2024-04-17T16:52:03.736Z,37.33
2024-04-17T16:55:06.976Z,37.55
2024-04-17T16:58:11.771Z,37.23
2024-04-17T17:01:16.440Z,37.55
2024-04-17T17:04:25.359Z,37.48
2024-04-17T17:07:27.476Z,37.31
2024-04-17T17:10:33.092Z,37.52
2024-04-17T17:13:35.886Z,37.35
2024-04-17T17:16:41.654Z,37.56
2024-04-17T17:19:48.227Z,37.78
2024-04-17T17:22:53.589Z,37.73
2024-04-17T17:25:55.629Z,37.92
2024-04-17T17:29:02.149Z,37.44
2024-04-17T17:32:07.063Z,37.56
2024-04-17T17:35:14.499Z,37.89
2024-04-17T17:38:16.433Z,38.04
2024-04-17T17:41:23.045Z,38.35
2024-04-17T17:44:31.749Z,37.89
2024-04-17T17:47:36.450Z,38.16
2024-04-17T17:50:50.331Z,38.23
2024-04-17T17:53:52.468Z,38.73
2024-04-17T17:56:56.981Z,38.76
2024-04-17T17:59:59.303Z,38.63
2024-04-17T18:03:03.840Z,38.72
2024-04-17T18:06:08.831Z,38.53
2024-04-17T18:09:13.470Z,38.58
2024-04-17T18:12:15.371Z,38.68
2024-04-17T18:15:20.407Z,38.77
2024-04-17T18:18:22.644Z,39.06
2024-04-17T18:21:29.934Z,39.00
2024-04-17T18:24:31.885Z,38.37
2024-04-17T18:27:36.869Z,37.87
2024-04-17T18:30:39.103Z,38.11
2024-04-17T18:33:44.870Z,37.76
2024-04-17T18:36:49.701Z,36.85
2024-04-17T18:39:54.201Z,36.60
2024-04-17T18:42:56.375Z,37.11
2024-04-17T18:46:02.114Z,36.58
2024-04-17T18:49:07.346Z,36.90
2024-04-17T18:52:12.113Z,37.16
2024-04-17T18:55:17.003Z,36.86
2024-04-17T18:58:19.137Z,36.97
2024-04-17T19:01:24.771Z,36.95
2024-04-17T19:04:27.002Z,37.07
2024-04-17T19:07:35.498Z,37.08
2024-04-17T19:10:40.353Z,37.62
2024-04-17T19:13:42.814Z,37.62
2024-04-17T19:16:47.462Z,37.34
2024-04-17T19:19:50.343Z,37.50
2024-04-17T19:22:57.382Z,37.10
2024-04-17T19:26:01.621Z,37.41
2024-04-17T19:29:06.091Z,37.16
2024-04-17T19:32:10.552Z,37.10
2024-04-17T19:35:15.120Z,36.67
2024-04-17T19:38:20.102Z,37.06
2024-04-17T19:41:26.053Z,37.51
2024-04-17T19:44:30.365Z,36.96
2024-04-17T19:47:35.269Z,37.43
2024-04-17T19:50:40.663Z,37.26
2024-04-17T19:53:46.639Z,37.61
2024-04-17T19:56:59.243Z,37.60
2024-04-17T20:00:09.727Z,37.31
2024-04-17T20:03:14.290Z,37.72
2024-04-17T20:06:18.817Z,37.60
2024-04-17T20:09:25.721Z,37.70
2024-04-17T20:12:27.806Z,37.75
2024-04-17T20:15:37.998Z,37.45
2024-04-17T20:18:40.398Z,37.48
2024-04-17T20:21:46.093Z,37.27
2024-04-17T20:24:53.806Z,37.28
2024-04-17T20:27:57.772Z,37.36
2024-04-17T20:31:03.952Z,37.48
2024-04-17T20:34:08.696Z,37.01
2024-04-17T20:37:10.682Z,37.14
2024-04-17T20:40:24.158Z,36.53
2024-04-17T20:43:30.338Z,36.97
2024-04-17T20:46:32.472Z,36.87
2024-04-17T20:49:36.828Z,36.97
2024-04-17T20:52:38.923Z,37.00
2024-04-17T20:55:46.453Z,36.95
2024-04-17T20:58:51.144Z,36.93
2024-04-17T21:01:53.110Z,36.65
2024-04-17T21:04:58.286Z,37.28
2024-04-17T21:08:00.518Z,37.26
2024-04-17T21:11:09.969Z,37.50
2024-04-17T21:14:11.946Z,36.94
2024-04-17T21:17:16.320Z,37.54
2024-04-17T21:20:20.632Z,37.19
2024-04-17T21:23:25.409Z,37.69
2024-04-17T21:26:32.755Z,37.38
2024-04-17T21:29:34.602Z,37.63
2024-04-17T21:32:45.740Z,37.69
2024-04-17T21:35:52.359Z,37.19
2024-04-17T21:38:57.267Z,37.01
2024-04-17T21:42:03.025Z,37.33
2024-04-17T21:45:10.437Z,37.00
2024-04-17T21:48:13.702Z,37.36
2024-04-17T21:51:18.734Z,37.20
2024-04-17T21:54:21.286Z,37.40
2024-04-17T21:57:28.912Z,37.54
2024-04-17T22:00:30.996Z,37.54
2024-04-17T22:03:35.824Z,37.63
2024-04-17T22:06:40.564Z,37.30
2024-04-17T22:09:42.448Z,37.73
2024-04-17T22:12:49.994Z,37.77
2024-04-17T22:15:54.705Z,37.60
2024-04-17T22:18:59.342Z,37.61
2024-04-17T22:22:01.602Z,37.90
2024-04-17T22:25:06.149Z,38.07
2024-04-17T22:28:10.571Z,37.47
2024-04-17T22:31:15.291Z,37.94
2024-04-17T22:34:17.483Z,37.85
2024-04-17T22:37:23.984Z,37.59
2024-04-17T22:40:28.604Z,37.83
2024-04-17T22:43:35.825Z,37.86
2024-04-17T22:46:40.314Z,37.91
2024-04-17T22:49:51.649Z,37.81
2024-04-17T22:52:56.449Z,38.11
2024-04-17T22:55:58.250Z,37.73
2024-04-17T22:59:05.182Z,37.92
2024-04-17T23:02:08.367Z,38.07
2024-04-17T23:05:12.755Z,38.17
2024-04-17T23:08:14.515Z,37.94
2024-04-17T23:11:18.992Z,37.79
2024-04-17T23:14:23.766Z,38.06
2024-04-17T23:17:28.215Z,38.04
2024-04-17T23:20:31.103Z,37.68
2024-04-17T23:23:35.455Z,38.03
2024-04-17T23:26:37.311Z,38.35
2024-04-17T23:29:44.561Z,38.02
2024-04-17T23:32:46.338Z,37.95
2024-04-17T23:35:52.957Z,38.36
2024-04-17T23:38:54.711Z,38.48
2024-04-17T23:41:59.300Z,37.83
2024-04-17T23:45:04.733Z,38.25
2024-04-17T23:48:09.808Z,37.86
2024-04-17T23:51:14.488Z,38.22
2024-04-17T23:54:16.379Z,38.41
2024-04-17T23:57:21.212Z,38.04
